Time;durP1;ratioP1;P1;durP2;ratioP2;P2;SDS_P1;SDS_P2;PMS_P1;PMS_P2;Temp;Humidity;BMP_temperature;BMP_pressure;BME280_temperature;BME280_humidity;BME280_pressure;Samples;Min_cycle;Max_cycle;Signal;HPM_P1;HPM_P2
2022/01/05 00:02:04;;;;;;;11.80;11.10;;;;;;;9.13;73.53;99313.81;4979897;28;20416;-64
2022/01/05 00:04:30;;;;;;;9.98;9.48;;;;;;;9.18;73.32;99327.28;4979077;28;20076;-63
2022/01/05 00:06:55;;;;;;;10.30;9.80;;;;;;;9.06;74.42;99332.28;4971207;28;20491;-62
2022/01/05 00:09:21;;;;;;;10.70;10.10;;;;;;;9.06;74.55;99340.22;4973185;28;21140;-64
2022/01/05 00:11:46;;;;;;;10.45;9.95;;;;;;;9.08;74.05;99337.38;4967696;28;20086;-66
2022/01/05 00:14:12;;;;;;;10.00;9.50;;;;;;;9.04;74.33;99339.63;4980429;28;20026;-68
2022/01/05 00:16:37;;;;;;;10.00;9.50;;;;;;;9.05;74.09;99340.44;4975957;28;20070;-64
2022/01/05 00:19:03;;;;;;;10.25;9.75;;;;;;;8.96;75.60;99337.13;4973754;28;20065;-68
2022/01/05 00:21:29;;;;;;;10.13;9.63;;;;;;;9.00;75.12;99333.06;4977083;28;20037;-67
2022/01/05 00:23:55;;;;;;;10.20;9.70;;;;;;;8.92;75.81;99338.50;4978750;28;20500;-66
2022/01/05 00:26:20;;;;;;;11.02;10.43;;;;;;;8.93;75.25;99341.97;4984633;28;20027;-66
2022/01/05 00:28:45;;;;;;;10.40;9.90;;;;;;;8.82;76.68;99346.78;4977726;28;20038;-65
2022/01/05 00:31:11;;;;;;;10.07;9.57;;;;;;;8.79;76.90;99344.50;4987624;28;20034;-64
2022/01/05 00:33:36;;;;;;;9.77;9.27;;;;;;;8.91;75.75;99347.44;4971278;28;20042;-64
2022/01/05 00:36:03;;;;;;;10.32;9.82;;;;;;;8.92;75.98;99332.41;4976049;28;20384;-64
2022/01/05 00:38:29;;;;;;;10.20;9.70;;;;;;;8.89;76.31;99332.78;4972923;28;20393;-63
2022/01/05 00:40:54;;;;;;;10.48;9.98;;;;;;;8.82;76.93;99325.63;4979282;28;20081;-66
2022/01/05 00:43:20;;;;;;;10.43;9.93;;;;;;;8.86;76.45;99315.47;4984650;28;20101;-64
2022/01/05 00:45:45;;;;;;;11.30;10.70;;;;;;;8.84;76.50;99313.03;4980270;28;20031;-66
2022/01/05 00:48:11;;;;;;;10.55;10.02;;;;;;;8.91;76.41;99313.06;4966173;28;20026;-68
2022/01/05 00:50:36;;;;;;;10.30;9.80;;;;;;;9.00;75.93;99317.19;4967717;28;20027;-67
2022/01/05 00:53:01;;;;;;;10.00;9.50;;;;;;;9.06;75.06;99311.13;4967048;28;20081;-65
2022/01/05 00:55:28;;;;;;;10.05;9.55;;;;;;;9.02;75.67;99309.06;4980635;28;20516;-65
2022/01/05 00:57:54;;;;;;;9.85;9.35;;;;;;;9.00;75.80;99303.16;4965059;28;20027;-64
2022/01/05 01:00:19;;;;;;;10.35;9.85;;;;;;;8.94;75.87;99307.38;4978675;28;20034;-67
2022/01/05 01:02:45;;;;;;;10.07;9.57;;;;;;;8.90;76.14;99314.09;4972961;28;20500;-67
2022/01/05 01:05:13;;;;;;;9.70;9.30;;;;;;;8.79;76.76;99299.56;4975368;28;20022;-67
2022/01/05 01:07:38;;;;;;;11.07;10.48;;;;;;;8.83;77.27;99305.28;4971311;28;20516;-66
2022/01/05 01:10:04;;;;;;;9.90;9.40;;;;;;;8.84;76.81;99291.06;4983358;28;20124;-66
2022/01/05 01:12:30;;;;;;;10.25;9.75;;;;;;;8.85;76.55;99295.31;4966778;28;20049;-67
2022/01/05 01:14:55;;;;;;;10.15;9.65;;;;;;;8.90;76.10;99300.88;4981136;28;20481;-66
2022/01/05 01:17:22;;;;;;;10.13;9.63;;;;;;;8.89;76.48;99301.03;4977040;28;20027;-66
2022/01/05 01:19:47;;;;;;;9.98;9.48;;;;;;;8.88;76.81;99308.16;4972040;28;20033;-65
2022/01/05 01:22:13;;;;;;;10.60;10.02;;;;;;;8.92;75.78;99317.34;4978127;28;20396;-65
2022/01/05 01:24:39;;;;;;;10.48;9.98;;;;;;;8.95;76.42;99301.06;4972389;28;20031;-67
2022/01/05 01:27:05;;;;;;;10.13;9.63;;;;;;;8.89;76.65;99298.38;4973311;28;20389;-63
2022/01/05 01:29:31;;;;;;;10.25;9.75;;;;;;;8.82;76.39;99280.69;4970555;28;20034;-63
2022/01/05 01:31:56;;;;;;;10.30;9.80;;;;;;;8.85;76.95;99284.75;4971444;28;20049;-66
2022/01/05 01:34:23;;;;;;;10.75;10.15;;;;;;;8.86;76.69;99289.84;4965601;28;20022;-67
2022/01/05 01:36:48;;;;;;;10.13;9.63;;;;;;;8.83;76.54;99287.59;4980941;28;20034;-66
2022/01/05 01:39:14;;;;;;;10.48;9.98;;;;;;;8.78;77.39;99303.22;4971040;28;20089;-65
2022/01/05 01:41:39;;;;;;;10.40;9.90;;;;;;;8.88;76.45;99302.88;4975051;28;20054;-68
2022/01/05 01:44:06;;;;;;;10.13;9.63;;;;;;;8.82;76.90;99299.19;4973252;28;20027;-66
2022/01/05 01:46:31;;;;;;;10.50;9.98;;;;;;;8.84;76.88;99304.28;4962621;28;20117;-66
2022/01/05 01:48:57;;;;;;;9.90;9.40;;;;;;;8.72;77.13;99305.81;4969373;28;20109;-64
2022/01/05 01:51:22;;;;;;;10.20;9.70;;;;;;;8.68;78.07;99284.25;4979850;28;20073;-65
2022/01/05 01:53:48;;;;;;;10.75;10.15;;;;;;;8.71;77.65;99297.06;4975845;28;20034;-66
2022/01/05 01:56:15;;;;;;;10.20;9.70;;;;;;;8.71;77.63;99285.66;4981416;28;20084;-66
2022/01/05 01:58:41;;;;;;;10.80;10.30;;;;;;;8.65;77.75;99291.72;4976044;28;20050;-66
2022/01/05 02:01:06;;;;;;;10.23;9.73;;;;;;;8.74;77.13;99294.03;4972600;28;20035;-63
2022/01/05 02:03:32;;;;;;;10.20;9.70;;;;;;;8.71;77.35;99306.81;4970920;28;20023;-65
2022/01/05 02:05:58;;;;;;;9.98;9.48;;;;;;;8.67;77.35;99298.47;4972458;28;20441;-64
2022/01/05 02:08:23;;;;;;;10.13;9.63;;;;;;;8.66;77.18;99298.63;4979954;28;20054;-66
2022/01/05 02:10:50;;;;;;;10.65;10.05;;;;;;;8.71;77.02;99298.88;4983514;28;20034;-64
2022/01/05 02:13:16;;;;;;;10.10;9.60;;;;;;;8.71;77.46;99306.81;4971836;28;20086;-67
2022/01/05 02:15:42;;;;;;;10.40;9.88;;;;;;;8.72;76.84;99305.81;4975497;28;20065;-65
2022/01/05 02:18:21;;;;;;;10.35;9.85;;;;;;;8.69;77.54;99300.91;4979866;28;20500;-65
2022/01/05 02:20:47;;;;;;;10.20;9.70;;;;;;;8.70;77.30;99287.50;4964126;28;20057;-66
2022/01/05 02:23:13;;;;;;;11.20;10.60;;;;;;;8.71;77.03;99297.06;4975113;28;20262;-64
2022/01/05 02:25:39;;;;;;;9.93;9.45;;;;;;;8.70;77.61;99299.91;4961687;28;20035;-65
2022/01/05 02:28:04;;;;;;;10.20;9.70;;;;;;;8.79;76.46;99309.31;4976590;28;20034;-66
2022/01/05 02:30:31;;;;;;;10.50;9.98;;;;;;;8.80;76.63;99310.94;4969989;28;20026;-67
2022/01/05 02:32:57;;;;;;;9.75;9.27;;;;;;;8.73;77.07;99320.66;4971380;28;20027;-66
2022/01/05 02:35:23;;;;;;;10.50;9.95;;;;;;;8.81;76.90;99313.41;4973876;28;20030;-67
2022/01/05 02:37:51;;;;;;;10.10;9.60;;;;;;;8.91;76.21;99301.69;4977743;28;20440;-64
2022/01/05 02:40:18;;;;;;;10.20;9.70;;;;;;;8.88;76.40;99310.78;4973123;28;20034;-65
2022/01/05 02:42:44;;;;;;;9.90;9.40;;;;;;;8.93;76.65;99305.75;4971228;28;20054;-66
2022/01/05 02:45:12;;;;;;;10.20;9.70;;;;;;;8.99;76.08;99302.34;4962801;28;20504;-66
2022/01/05 02:47:38;;;;;;;9.80;9.30;;;;;;;9.02;76.07;99307.22;4974084;28;20561;-67
2022/01/05 02:50:05;;;;;;;10.13;9.63;;;;;;;9.04;75.89;99301.75;4972062;28;20037;-64
2022/01/05 02:52:31;;;;;;;9.80;9.30;;;;;;;9.05;76.17;99296.28;4971186;28;20023;-64
2022/01/05 02:54:56;;;;;;;9.70;9.20;;;;;;;9.08;76.21;99290.56;4977735;28;20039;-65
2022/01/05 02:57:22;;;;;;;9.98;9.48;;;;;;;9.07;76.06;99299.53;4976458;28;20026;-65
2022/01/05 02:59:48;;;;;;;10.10;9.60;;;;;;;9.06;76.20;99297.91;4982364;28;20033;-67
2022/01/05 03:02:13;;;;;;;10.38;9.85;;;;;;;9.11;76.24;99292.03;4969156;28;20400;-65
2022/01/05 03:04:39;;;;;;;10.00;9.50;;;;;;;9.13;75.79;99287.34;4970084;28;20073;-66
2022/01/05 03:07:04;;;;;;;9.88;9.38;;;;;;;9.22;75.56;99280.88;4971354;28;20031;-65
2022/01/05 03:09:30;;;;;;;10.32;9.80;;;;;;;9.20;75.78;99279.47;4974455;28;20072;-63
2022/01/05 03:11:55;;;;;;;10.50;10.00;;;;;;;9.21;75.63;99278.44;4985199;28;20034;-66
2022/01/05 03:14:21;;;;;;;9.90;9.40;;;;;;;9.19;76.16;99283.13;4974878;28;20598;-64
2022/01/05 03:16:46;;;;;;;9.80;9.30;;;;;;;9.15;76.20;99287.97;4975005;28;20338;-67
2022/01/05 03:19:12;;;;;;;10.68;10.07;;;;;;;9.06;76.48;99273.28;4976079;28;20158;-67
2022/01/05 03:21:37;;;;;;;10.82;10.23;;;;;;;9.05;76.73;99276.94;4976127;28;20373;-63
2022/01/05 03:24:03;;;;;;;9.80;9.30;;;;;;;9.07;77.00;99266.97;4981822;28;20030;-65
2022/01/05 03:26:29;;;;;;;10.00;9.50;;;;;;;9.06;77.20;99268.81;4974345;28;20121;-66
2022/01/05 03:28:54;;;;;;;10.00;9.50;;;;;;;9.04;76.67;99265.53;4975501;28;20038;-64
2022/01/05 03:31:20;;;;;;;9.70;9.20;;;;;;;9.03;76.77;99263.06;4973109;28;20057;-64
2022/01/05 03:33:45;;;;;;;10.93;10.32;;;;;;;9.03;77.62;99265.72;4959571;28;20122;-64
2022/01/05 03:36:10;;;;;;;9.63;9.13;;;;;;;9.01;77.40;99275.69;4968542;28;20476;-66
2022/01/05 03:38:36;;;;;;;10.07;9.57;;;;;;;9.09;77.08;99270.22;4980992;28;20034;-66
2022/01/05 03:41:02;;;;;;;10.15;9.65;;;;;;;9.15;76.44;99258.88;4977604;28;20019;-65
2022/01/05 03:43:27;;;;;;;9.75;9.30;;;;;;;9.09;77.13;99252.53;4975731;28;20031;-67
2022/01/05 03:45:53;;;;;;;10.40;9.85;;;;;;;9.22;76.41;99249.13;4966753;28;20029;-69
2022/01/05 03:48:21;;;;;;;10.30;9.80;;;;;;;9.14;76.52;99247.47;4976236;28;20396;-66
2022/01/05 03:50:47;;;;;;;10.27;9.77;;;;;;;9.17;77.00;99261.31;4969756;28;20023;-64
2022/01/05 03:53:13;;;;;;;9.50;9.00;;;;;;;9.21;77.29;99262.56;4988738;28;20491;-63
2022/01/05 03:55:41;;;;;;;9.70;9.20;;;;;;;9.32;77.57;99267.28;4976559;28;20082;-66
2022/01/05 03:58:07;;;;;;;9.88;9.38;;;;;;;9.35;76.57;99262.44;4980014;28;20042;-65
2022/01/05 04:00:35;;;;;;;10.07;9.57;;;;;;;9.43;75.43;99264.09;4968471;28;20031;-65
2022/01/05 04:03:00;;;;;;;10.07;9.57;;;;;;;9.37;76.74;99257.75;4969831;28;20077;-64
2022/01/05 04:05:28;;;;;;;10.98;10.38;;;;;;;9.37;76.49;99259.56;4973455;28;20035;-65
2022/01/05 04:07:53;;;;;;;11.38;10.73;;;;;;;9.43;76.00;99260.63;4970284;28;20030;-65
2022/01/05 04:10:19;;;;;;;9.40;9.00;;;;;;;9.50;75.65;99261.47;4968593;28;20464;-64
2022/01/05 04:12:44;;;;;;;10.27;9.77;;;;;;;9.41;76.16;99260.81;4973302;28;20039;-67
2022/01/05 04:15:10;;;;;;;9.73;9.23;;;;;;;9.34;76.49;99260.78;4972344;28;20400;-68
2022/01/05 04:17:35;;;;;;;9.73;9.23;;;;;;;9.40;76.27;99280.34;4973985;28;20147;-68
2022/01/05 04:20:02;;;;;;;10.75;10.15;;;;;;;9.42;76.50;99275.69;4986810;28;20385;-65
2022/01/05 04:22:28;;;;;;;9.90;9.40;;;;;;;9.36;75.89;99274.63;4972770;28;20038;-64
2022/01/05 04:24:53;;;;;;;10.10;9.60;;;;;;;9.44;76.50;99270.19;4978136;28;20027;-65
2022/01/05 04:27:19;;;;;;;10.07;9.57;;;;;;;9.38;76.33;99279.72;4972967;28;20030;-67
2022/01/05 04:29:44;;;;;;;11.00;10.40;;;;;;;9.43;76.39;99284.44;4972897;28;20027;-66
2022/01/05 04:32:10;;;;;;;10.85;10.25;;;;;;;9.55;75.51;99296.09;4974609;28;20054;-69
2022/01/05 04:34:36;;;;;;;9.93;9.43;;;;;;;9.72;75.18;99315.09;4971247;28;20417;-66
2022/01/05 04:37:02;;;;;;;10.32;9.82;;;;;;;9.72;74.78;99320.41;4965904;28;20459;-67
2022/01/05 04:39:28;;;;;;;9.77;9.27;;;;;;;9.76;74.90;99313.66;4973790;28;20027;-67
2022/01/05 04:41:53;;;;;;;9.70;9.20;;;;;;;9.80;74.68;99317.56;4975521;28;20022;-65
2022/01/05 04:44:18;;;;;;;10.65;10.05;;;;;;;9.66;74.88;99319.34;4970293;28;20046;-68
2022/01/05 04:46:44;;;;;;;10.77;10.18;;;;;;;9.55;76.11;99318.09;4970273;28;20121;-69
2022/01/05 04:49:09;;;;;;;9.98;9.48;;;;;;;9.47;76.06;99318.25;4972299;28;20400;-63
2022/01/05 04:51:35;;;;;;;10.00;9.50;;;;;;;9.38;76.46;99319.44;4969626;28;20392;-67
2022/01/05 04:54:00;;;;;;;9.85;9.35;;;;;;;9.30;76.89;99323.06;4972961;28;20060;-65
2022/01/05 04:56:26;;;;;;;10.20;9.70;;;;;;;9.38;76.33;99330.03;4972762;28;20026;-65
2022/01/05 04:58:51;;;;;;;9.77;9.27;;;;;;;9.38;76.71;99324.72;4977801;28;20034;-67
2022/01/05 05:01:17;;;;;;;10.25;9.75;;;;;;;9.44;76.56;99323.13;4969465;28;20513;-67
2022/01/05 05:03:42;;;;;;;10.20;9.70;;;;;;;9.21;77.37;99326.06;4965593;28;20034;-68
2022/01/05 05:06:08;;;;;;;10.05;9.55;;;;;;;9.22;77.59;99336.44;4970461;28;20416;-69
2022/01/05 05:08:33;;;;;;;10.45;9.85;;;;;;;9.38;78.38;99333.47;4967822;28;20404;-64
2022/01/05 05:10:58;;;;;;;10.18;9.68;;;;;;;9.51;76.67;99339.84;4972240;28;20035;-64
2022/01/05 05:13:24;;;;;;;10.18;9.68;;;;;;;9.73;75.19;99353.81;4963593;28;20062;-65
2022/01/05 05:15:49;;;;;;;10.20;9.70;;;;;;;9.67;75.28;99352.75;4976123;28;20380;-66
2022/01/05 05:18:15;;;;;;;10.88;10.32;;;;;;;9.49;76.40;99352.47;4973464;28;20392;-64
2022/01/05 05:20:40;;;;;;;10.60;10.00;;;;;;;9.39;76.21;99353.63;4969161;28;20022;-67
2022/01/05 05:23:06;;;;;;;11.15;10.52;;;;;;;9.37;76.93;99366.25;4969847;28;20515;-66
2022/01/05 05:25:32;;;;;;;10.63;10.02;;;;;;;9.26;77.55;99364.16;4971519;28;20022;-67
2022/01/05 05:27:58;;;;;;;9.93;9.43;;;;;;;9.22;77.97;99368.22;4974131;28;20035;-67
2022/01/05 05:30:24;;;;;;;9.80;9.30;;;;;;;9.16;77.99;99376.09;4972146;28;20406;-66
2022/01/05 05:32:50;;;;;;;9.82;9.32;;;;;;;9.15;77.96;99380.56;4960526;28;20041;-66
2022/01/05 05:35:16;;;;;;;10.48;9.93;;;;;;;8.99;79.39;99391.47;4968536;28;20034;-65
2022/01/05 05:37:42;;;;;;;10.05;9.55;;;;;;;8.94;79.53;99397.31;4966914;28;20108;-66
2022/01/05 05:40:08;;;;;;;9.95;9.45;;;;;;;9.12;78.68;99389.72;4972165;28;20058;-65
2022/01/05 05:42:33;;;;;;;9.85;9.35;;;;;;;9.18;78.15;99393.44;4972781;28;20101;-66
2022/01/05 05:44:59;;;;;;;10.88;10.27;;;;;;;9.00;79.92;99395.72;4963631;28;20489;-67
2022/01/05 05:47:24;;;;;;;10.35;9.85;;;;;;;8.90;80.30;99400.53;4962224;28;20121;-67
2022/01/05 05:49:50;;;;;;;10.52;9.93;;;;;;;8.88;80.65;99392.78;4972944;28;20023;-66
2022/01/05 05:52:16;;;;;;;10.10;9.60;;;;;;;9.03;79.49;99377.66;4974610;28;20048;-65
2022/01/05 05:54:42;;;;;;;10.45;9.88;;;;;;;9.11;79.23;99380.16;4970031;28;20050;-65
2022/01/05 05:57:07;;;;;;;9.50;9.05;;;;;;;9.18;78.38;99380.22;4965412;28;20405;-64
2022/01/05 05:59:33;;;;;;;10.05;9.55;;;;;;;9.13;78.59;99391.34;4966624;28;20042;-64
2022/01/05 06:01:59;;;;;;;10.35;9.85;;;;;;;8.93;80.35;99406.25;4964602;28;20138;-64
2022/01/05 06:04:24;;;;;;;10.05;9.55;;;;;;;8.50;82.01;99410.75;4965549;28;20484;-64
2022/01/05 06:06:50;;;;;;;10.57;10.07;;;;;;;8.21;83.66;99411.63;4969832;28;20030;-64
2022/01/05 06:09:16;;;;;;;10.00;9.50;;;;;;;8.09;84.55;99421.06;4970783;28;20023;-64
2022/01/05 06:11:42;;;;;;;10.38;9.88;;;;;;;7.33;88.22;99421.28;4968922;28;20109;-65
2022/01/05 06:14:07;;;;;;;10.93;10.32;;;;;;;7.28;89.68;99425.47;4959268;28;20122;-66
2022/01/05 06:16:33;;;;;;;10.25;9.75;;;;;;;7.47;87.40;99425.75;4971073;28;20026;-64
2022/01/05 06:18:58;;;;;;;11.32;10.70;;;;;;;7.70;86.00;99430.09;4978864;28;20100;-63
2022/01/05 06:21:24;;;;;;;10.27;9.77;;;;;;;8.05;84.85;99423.25;4971724;28;20031;-65
2022/01/05 06:23:49;;;;;;;10.32;9.82;;;;;;;8.10;85.40;99422.69;4971005;28;20032;-65
2022/01/05 06:26:15;;;;;;;10.52;10.02;;;;;;;7.91;85.63;99413.53;4977848;28;20037;-64
2022/01/05 06:28:41;;;;;;;10.20;9.70;;;;;;;7.70;87.85;99416.91;4978964;28;20030;-66
2022/01/05 06:31:06;;;;;;;11.95;11.25;;;;;;;7.73;86.79;99429.75;4973444;28;20049;-64
2022/01/05 06:33:31;;;;;;;10.38;9.88;;;;;;;7.36;88.21;99428.84;4966654;28;20361;-64
2022/01/05 06:35:58;;;;;;;11.80;11.10;;;;;;;6.90;91.30;99423.69;4975106;28;20049;-66
2022/01/05 06:38:23;;;;;;;11.68;10.98;;;;;;;6.81;93.06;99416.00;4976872;28;20033;-65
2022/01/05 06:40:49;;;;;;;10.93;10.32;;;;;;;6.83;92.90;99414.84;4973272;28;20416;-65
2022/01/05 06:43:15;;;;;;;11.15;10.55;;;;;;;6.97;92.47;99417.66;4967408;28;20023;-65
2022/01/05 06:45:40;;;;;;;11.00;10.40;;;;;;;6.80;93.29;99419.63;4976312;28;20029;-65
2022/01/05 06:48:05;;;;;;;11.07;10.48;;;;;;;6.60;94.38;99414.84;4964975;28;20026;-67
2022/01/05 06:50:31;;;;;;;11.35;10.75;;;;;;;6.56;94.25;99418.84;4967507;28;20034;-67
2022/01/05 06:52:57;;;;;;;10.43;9.93;;;;;;;6.41;95.91;99428.50;4967633;28;20038;-67
2022/01/05 06:55:23;;;;;;;12.68;11.88;;;;;;;6.50;95.79;99426.63;4976314;28;20051;-63
2022/01/05 06:57:51;;;;;;;12.02;11.40;;;;;;;6.74;94.44;99429.06;4959038;28;20042;-65
2022/01/05 07:00:17;;;;;;;11.20;10.60;;;;;;;6.60;95.88;99428.00;4968645;28;20058;-68
2022/01/05 07:02:42;;;;;;;11.25;10.65;;;;;;;6.74;94.62;99429.06;4967190;28;20081;-64
2022/01/05 07:05:08;;;;;;;12.50;11.85;;;;;;;7.00;93.85;99435.78;4958997;28;20031;-72
2022/01/05 07:07:35;;;;;;;10.73;10.23;;;;;;;7.09;92.68;99435.53;4963810;28;20038;-67
2022/01/05 07:10:01;;;;;;;13.38;12.68;;;;;;;7.19;92.39;99443.19;4956547;28;20141;-76
2022/01/05 07:12:26;;;;;;;10.30;9.80;;;;;;;7.27;90.78;99429.09;4964157;28;20121;-79
2022/01/05 07:14:53;;;;;;;11.00;10.40;;;;;;;7.31;91.46;99436.47;4968950;28;20477;-73
2022/01/05 07:17:18;;;;;;;10.50;9.98;;;;;;;6.95;93.42;99438.13;4969091;28;20405;-74
2022/01/05 07:19:44;;;;;;;11.40;10.75;;;;;;;6.84;94.41;99431.47;4970636;28;20035;-77
2022/01/05 07:22:10;;;;;;;10.90;10.30;;;;;;;6.98;93.78;99435.13;4971454;28;20121;-76
2022/01/05 07:24:35;;;;;;;12.57;11.88;;;;;;;7.02;93.40;99420.59;4967633;28;20031;-74
2022/01/05 07:27:01;;;;;;;10.30;9.80;;;;;;;7.05;92.89;99423.72;4977148;28;20030;-70
2022/01/05 07:29:26;;;;;;;11.43;10.80;;;;;;;7.41;91.23;99415.09;4970636;28;20404;-75
2022/01/05 07:31:52;;;;;;;10.52;10.02;;;;;;;7.61;90.10;99418.84;4968004;28;20027;-74
2022/01/05 07:34:17;;;;;;;10.70;10.20;;;;;;;7.85;89.38;99422.19;4971618;28;20023;-74
2022/01/05 07:36:43;;;;;;;10.43;9.93;;;;;;;7.69;89.80;99420.56;4974170;28;20090;-76
2022/01/05 07:39:08;;;;;;;11.00;10.40;;;;;;;7.75;89.47;99417.19;4971201;28;20031;-77
2022/01/05 07:41:36;;;;;;;10.18;9.68;;;;;;;7.64;89.17;99417.66;4969203;28;20031;-76
2022/01/05 07:44:02;;;;;;;10.90;10.30;;;;;;;7.34;91.81;99414.19;4972406;28;20042;-75
2022/01/05 07:46:28;;;;;;;11.45;10.82;;;;;;;7.12;93.48;99415.88;4971226;28;20108;-76
2022/01/05 07:48:53;;;;;;;10.80;10.20;;;;;;;7.56;91.13;99418.56;4968267;28;20465;-72
2022/01/05 07:51:19;;;;;;;13.38;12.63;;;;;;;7.77;89.88;99423.09;4962506;28;20039;-71
2022/01/05 07:53:44;;;;;;;11.88;11.25;;;;;;;7.32;91.53;99429.38;4958147;28;20053;-71
2022/01/05 07:56:10;;;;;;;10.65;10.15;;;;;;;7.95;88.56;99418.25;4963599;28;20129;-71
2022/01/05 07:58:37;;;;;;;10.77;10.25;;;;;;;8.44;85.65;99419.44;4966210;28;20034;-79
2022/01/05 08:01:06;;;;;;;10.30;9.80;;;;;;;8.88;83.94;99416.56;4979564;28;20031;-75
2022/01/05 08:03:37;;;;;;;10.60;10.10;;;;;;;9.21;82.35;99411.56;4975729;28;20392;-77
2022/01/05 08:06:03;;;;;;;9.95;9.45;;;;;;;8.64;85.59;99414.34;4986830;28;20031;-79
2022/01/05 08:08:29;;;;;;;11.07;10.48;;;;;;;8.87;84.45;99430.81;4971945;28;20065;-71
2022/01/05 08:10:55;;;;;;;10.30;9.77;;;;;;;9.22;82.90;99422.97;4976594;28;20032;-73
2022/01/05 08:13:22;;;;;;;11.07;10.45;;;;;;;8.25;86.62;99429.59;4972404;28;20027;-70
2022/01/05 08:15:48;;;;;;;10.63;10.02;;;;;;;8.18;88.37;99426.03;4973244;28;20132;-73
2022/01/05 08:18:13;;;;;;;10.82;10.23;;;;;;;8.62;85.80;99427.75;4977241;28;20055;-72
2022/01/05 08:20:39;;;;;;;10.27;9.77;;;;;;;9.24;82.50;99419.09;4975164;28;20114;-75
2022/01/05 08:23:06;;;;;;;10.25;9.75;;;;;;;9.26;82.52;99411.00;4976683;28;20393;-77
2022/01/05 08:25:31;;;;;;;10.95;10.35;;;;;;;8.75;83.78;99419.13;4968441;28;20481;-78
2022/01/05 08:27:56;;;;;;;10.73;10.13;;;;;;;8.55;85.13;99429.50;4968706;28;20035;-74
2022/01/05 08:30:24;;;;;;;11.20;10.60;;;;;;;8.51;85.19;99423.78;4967009;28;20074;-76
2022/01/05 08:32:52;;;;;;;10.68;10.07;;;;;;;8.07;87.71;99426.50;4971067;28;20058;-74
2022/01/05 08:35:21;;;;;;;10.90;10.30;;;;;;;7.79;89.02;99433.50;4968929;28;20026;-76
2022/01/05 08:37:48;;;;;;;11.13;10.52;;;;;;;7.81;90.31;99424.38;4969091;28;20109;-79
2022/01/05 08:40:16;;;;;;;12.02;11.32;;;;;;;7.98;89.33;99431.09;4971470;28;20035;-78
2022/01/05 08:42:42;;;;;;;11.63;10.93;;;;;;;8.23;87.72;99428.13;4969606;28;20401;-74
2022/01/05 08:45:08;;;;;;;11.13;10.52;;;;;;;8.45;87.28;99429.84;4972685;28;20031;-71
2022/01/05 08:47:34;;;;;;;11.70;11.00;;;;;;;8.38;87.56;99433.41;4970548;28;20038;-76
2022/01/05 08:50:00;;;;;;;11.73;11.02;;;;;;;8.58;86.56;99422.00;4972626;28;20115;-73
2022/01/05 08:52:25;;;;;;;10.93;10.32;;;;;;;8.38;86.62;99412.28;4975033;28;20029;-73
2022/01/05 08:54:51;;;;;;;11.88;11.25;;;;;;;8.63;86.86;99415.34;4958104;28;20054;-72
2022/01/05 08:57:17;;;;;;;10.90;10.30;;;;;;;9.04;84.76;99402.28;4968076;28;20101;-72
2022/01/05 08:59:43;;;;;;;10.63;10.02;;;;;;;8.93;85.67;99416.84;4972136;28;20031;-73
2022/01/05 09:02:09;;;;;;;12.45;11.65;;;;;;;8.76;86.71;99400.44;4959011;28;20538;-72
2022/01/05 09:04:34;;;;;;;12.35;11.57;;;;;;;8.56;87.19;99399.44;4958590;28;20039;-68
2022/01/05 09:07:00;;;;;;;11.15;10.55;;;;;;;7.91;91.08;99411.69;4969855;28;20034;-66
2022/01/05 09:09:26;;;;;;;11.18;10.57;;;;;;;8.28;89.48;99415.16;4971296;28;20076;-67
2022/01/05 09:11:52;;;;;;;10.50;10.00;;;;;;;8.66;85.84;99412.31;4970546;28;20109;-67
2022/01/05 09:14:17;;;;;;;11.32;10.73;;;;;;;8.98;84.05;99408.34;4973281;28;20081;-70
2022/01/05 09:16:44;;;;;;;11.07;10.48;;;;;;;9.22;82.58;99399.16;4959820;28;20030;-70
2022/01/05 09:19:09;;;;;;;11.70;11.10;;;;;;;9.37;81.25;99415.72;4969745;28;20134;-70
2022/01/05 09:21:36;;;;;;;10.30;9.80;;;;;;;9.67;80.51;99409.19;4964747;28;20035;-70
2022/01/05 09:24:02;;;;;;;10.48;9.98;;;;;;;9.35;82.32;99401.88;4969862;28;20027;-72
2022/01/05 09:26:27;;;;;;;11.10;10.50;;;;;;;8.95;85.28;99398.94;4962428;28;20062;-70
2022/01/05 09:28:53;;;;;;;10.40;9.90;;;;;;;8.57;88.32;99388.66;4971589;28;20191;-70
2022/01/05 09:31:18;;;;;;;10.35;9.85;;;;;;;8.43;89.02;99386.91;4963409;28;20034;-70
2022/01/05 09:33:44;;;;;;;10.88;10.27;;;;;;;8.18;91.25;99399.63;4971421;28;20042;-70
2022/01/05 09:36:18;;;;;;;10.48;9.98;;;;;;;8.20;91.35;99402.06;4969793;28;20175;-69
2022/01/05 09:44:12;;;;;;;10.65;10.05;;;;;;;8.89;88.66;99383.88;4969106;28;20057;-71
2022/01/05 09:46:45;;;;;;;10.13;9.63;;;;;;;8.81;89.04;99376.88;4970127;28;20457;-71
2022/01/05 09:49:22;;;;;;;10.57;9.97;;;;;;;8.80;89.30;99383.16;4969803;28;20026;-68
2022/01/05 09:51:51;;;;;;;10.65;10.05;;;;;;;8.43;91.20;99396.66;4966255;28;20333;-68
2022/01/05 09:54:16;;;;;;;9.98;9.48;;;;;;;8.65;90.28;99384.25;4967580;28;20054;-68
2022/01/05 09:56:43;;;;;;;10.90;10.30;;;;;;;8.53;90.60;99383.97;4973833;28;20029;-69
2022/01/05 09:59:09;;;;;;;10.25;9.75;;;;;;;8.39;90.53;99384.84;4969845;28;20550;-68
2022/01/05 10:01:36;;;;;;;10.88;10.27;;;;;;;8.67;87.59;99395.47;4972495;28;20608;-69
2022/01/05 10:04:02;;;;;;;11.02;10.43;;;;;;;8.85;86.52;99388.69;4970760;28;20350;-66
2022/01/05 10:06:28;;;;;;;10.48;9.88;;;;;;;8.93;87.04;99393.03;4973692;28;20026;-69
2022/01/05 10:08:53;;;;;;;10.63;10.02;;;;;;;8.65;89.06;99392.19;4973409;28;20522;-67
2022/01/05 10:11:22;;;;;;;10.40;9.88;;;;;;;8.14;92.91;99384.31;4966867;28;20041;-68
2022/01/05 10:13:48;;;;;;;10.95;10.35;;;;;;;7.79;94.69;99393.91;4971059;28;20124;-68
2022/01/05 10:16:14;;;;;;;10.25;9.75;;;;;;;7.64;96.65;99393.91;4967880;28;20465;-69
2022/01/05 10:18:41;;;;;;;11.43;10.80;;;;;;;7.75;95.72;99386.31;4977738;28;20034;-68
2022/01/05 10:21:07;;;;;;;11.18;10.57;;;;;;;7.74;96.53;99379.41;4968757;28;20063;-69
2022/01/05 10:23:37;;;;;;;10.02;9.52;;;;;;;7.97;94.91;99378.47;4965868;28;20096;-68
2022/01/05 10:26:36;;;;;;;10.57;10.05;;;;;;;7.72;96.60;99370.06;4962238;28;20030;-67
2022/01/05 10:29:16;;;;;;;11.45;10.77;;;;;;;7.53;99.28;99373.25;4965887;28;20065;-67
2022/01/05 10:31:44;;;;;;;11.23;10.63;;;;;;;7.19;100.00;99369.31;4969958;28;20027;-69
2022/01/05 10:34:20;;;;;;;10.32;9.82;;;;;;;7.24;100.00;99361.69;4970533;28;20034;-67
2022/01/05 10:36:53;;;;;;;11.00;10.40;;;;;;;7.37;100.00;99356.59;4971251;28;20046;-69
2022/01/05 10:39:33;;;;;;;10.37;9.87;;;;;;;7.20;100.00;99344.63;4971022;28;20037;-67
2022/01/05 10:42:06;;;;;;;11.13;10.52;;;;;;;7.36;100.00;99347.06;4970430;28;20547;-68
2022/01/05 10:44:33;;;;;;;10.23;9.73;;;;;;;7.77;100.00;99335.97;4972367;28;20126;-68
2022/01/05 10:47:00;;;;;;;10.95;10.35;;;;;;;7.82;100.00;99333.59;4971435;28;20057;-69
2022/01/05 10:49:40;;;;;;;10.35;9.85;;;;;;;7.93;98.75;99338.41;4971467;28;20107;-66
2022/01/05 10:52:31;;;;;;;10.68;10.07;;;;;;;8.36;96.35;99335.81;4971279;28;20034;-68
2022/01/05 10:55:12;;;;;;;10.00;9.50;;;;;;;8.66;93.60;99325.88;4958456;28;20106;-70
2022/01/05 10:57:39;;;;;;;10.02;9.52;;;;;;;8.71;94.38;99320.03;4958793;28;20029;-69
2022/01/05 11:00:06;;;;;;;10.10;9.60;;;;;;;8.76;94.07;99326.41;4971336;28;20102;-67
2022/01/05 11:02:34;;;;;;;9.93;9.43;;;;;;;8.86;94.45;99320.75;4971333;28;20045;-67
2022/01/05 11:05:09;;;;;;;10.50;9.90;;;;;;;9.00;93.68;99322.47;4971876;28;20054;-66
2022/01/05 11:07:39;;;;;;;10.43;9.82;;;;;;;9.06;92.11;99324.34;4971091;28;20034;-68
2022/01/05 11:10:25;;;;;;;10.65;10.05;;;;;;;8.98;93.17;99321.06;4972075;28;20035;-70
2022/01/05 11:12:53;;;;;;;11.60;10.90;;;;;;;9.15;91.96;99309.13;4970921;28;20027;-67
2022/01/05 11:15:39;;;;;;;9.85;9.35;;;;;;;9.37;91.30;99302.75;4970878;28;20042;-71
2022/01/05 11:18:21;;;;;;;10.90;10.30;;;;;;;9.48;90.73;99298.72;4971724;28;20287;-68
2022/01/05 11:21:01;;;;;;;10.85;10.25;;;;;;;9.25;92.00;99304.28;4970685;28;20054;-67
2022/01/05 11:23:27;;;;;;;10.30;9.75;;;;;;;9.25;92.41;99309.59;4970046;28;20461;-67
2022/01/05 11:25:55;;;;;;;10.30;9.77;;;;;;;9.29;91.88;99300.25;4969823;28;20416;-68
2022/01/05 11:28:23;;;;;;;9.82;9.32;;;;;;;9.23;92.39;99308.16;4970796;28;20066;-68
2022/01/05 11:30:51;;;;;;;9.80;9.30;;;;;;;9.02;92.71;99314.34;4970978;28;20497;-67
2022/01/05 11:33:18;;;;;;;10.65;10.05;;;;;;;9.21;91.59;99318.13;4974561;28;20039;-70
2022/01/05 11:35:44;;;;;;;11.38;10.70;;;;;;;9.69;88.29;99317.13;4974007;28;20034;-69